EGSC

Cambridge Airport

Cambridge, United Kingdom
METAR EGSC 231420Z 33013KT 9999 FEW035 13/03 Q1020
Observed Flight Rules
Sep-23 @ 14:20 UTC (33 minutes ago) Visual Flight Rules
Wind Visibility Clouds
330° at 13 knots 10,000+ meters
Temperatures Readings
Current 13°C / 55°F
Dewpoint 3°C / 37°F
Humidity 51%
Altimeter 30.12" Hg
Pressure 1020 hPa
Elevation 15
METAR EGSC 231420Z 33013KT 9999 FEW035 13/03 Q1020
Observed Flight Rules
Sep-23 @ 14:20 UTC
(33 minutes ago)
VFR
Wind Visibility
330° at 13 knots 10,000+ meters
Clouds
Temperature Dewpoint
13°C / 55°F 3°C / 37°F
Humidity Altimeter Pressure
51% 30.12" Hg 1020 hPa